Flight Track Log - Related Links

Times and Time Zones

All times are in EDT time to prevent confusion due to time zone crossing. See the WAE5 flight status page for this flight to view local times or setup timezone preferences in your user account.

Time Position Orientation Groundspeed Altitude Reporting Facility
EDT Latitude Longitude Course Direction KTS MPH feet Rate Location/Type
Mon 08:42:43 AM 40.7700 -111.9692 290° West 120 138 4,700  Level Salt Lake Center
Mon 08:43:20 AM 40.7778 -111.9975 290° West 132 152 5,100 581 Climbing Salt Lake Center
Mon 08:43:45 AM 40.7867 -112.0039 331° Northwest 130 150 5,300 600 Climbing Salt Lake Center
Mon 08:44:20 AM 40.8058 -112.0306 314° West 139 160 5,700 590 Climbing Salt Lake Center
Mon 08:44:46 AM 40.8142 -112.0400 319° Northwest 138 159 5,900 689 Climbing Salt Lake Center
Mon 08:45:21 AM 40.8344 -112.0664 315° West 140 161 6,400 700 Climbing Salt Lake Center
Mon 08:45:46 AM 40.8419 -112.0744 321° Northwest 138 159 6,600 689 Climbing Salt Lake Center
Mon 08:46:22 AM 40.8603 -112.1000 313° West 130 150 7,100 787 Climbing Salt Lake Center
Mon 08:46:47 AM 40.8728 -112.1136 321° Northwest 129 148 7,400 700 Climbing Salt Lake Center
Mon 08:47:22 AM 40.8883 -112.1331 317° Northwest 129 148 7,800 689 Climbing Salt Lake Center
Mon 08:47:48 AM 40.8983 -112.1456 317° Northwest 127 146 8,100 689 Climbing Salt Lake Center
Mon 08:48:23 AM 40.9142 -112.1669 314° West 128 147 8,500 600 Climbing Salt Lake Center
Mon 08:48:48 AM 40.9236 -112.1806 313° West 130 150 8,700 600 Climbing Salt Lake Center
Mon 08:49:23 AM 40.9408 -112.2033 315° West 132 152 9,100 590 Climbing Salt Lake Center
Mon 08:49:49 AM 40.9539 -112.2061 351° North 136 157 9,300 590 Climbing Salt Lake Center
Mon 08:50:24 AM 40.9756 -112.2058 North 130 150 9,700 689 Climbing Salt Lake Center
Mon 08:50:50 AM 40.9903 -112.2050 North 130 150 10,000 295 Climbing Salt Lake Center
Mon 08:51:25 AM 41.0144 -112.2067 357° North 137 158 10,000  Level Salt Lake Center
Mon 08:51:50 AM 41.0319 -112.2089 355° North 149 171 10,000  Level Salt Lake Center
Mon 08:52:51 AM 41.0808 -112.2136 356° North 173 199 10,000  Level Salt Lake Center
Mon 08:53:52 AM 41.1300 -112.2211 353° North 177 204 10,000  Level Salt Lake Center
Mon 08:54:52 AM 41.1800 -112.2322 351° North 180 207 10,000  Level Salt Lake Center
Mon 08:55:53 AM 41.2297 -112.2433 350° North 180 207 10,000  Level Salt Lake Center
Mon 08:56:54 AM 41.2794 -112.2533 351° North 180 207 10,000  Level Salt Lake Center
Mon 08:57:55 AM 41.3294 -112.2617 353° North 180 207 10,000  Level Salt Lake Center
Mon 08:58:55 AM 41.3789 -112.2706 352° North 179 206 10,000  Level Salt Lake Center
Mon 08:59:56 AM 41.4292 -112.2792 353° North 181 208 10,000  Level Salt Lake Center
Mon 09:00:57 AM 41.4797 -112.2839 356° North 181 208 10,000  Level Salt Lake Center
Mon 09:01:58 AM 41.5308 -112.2917 354° North 184 212 10,000  Level Salt Lake Center
Mon 09:02:58 AM 41.5814 -112.2972 355° North 183 211 10,000  Level Salt Lake Center
Mon 09:03:59 AM 41.6306 -112.3064 352° North 180 207 10,000  Level Salt Lake Center
Mon 09:05:00 AM 41.6797 -112.3150 353° North 177 204 10,000  Level Salt Lake Center
Mon 09:06:01 AM 41.7297 -112.3261 351° North 180 207 10,000  Level Salt Lake Center
Mon 09:07:02 AM 41.7811 -112.3403 348° North 185 213 10,000  Level Salt Lake Center
Mon 09:08:03 AM 41.8392 -112.3525 351° North 179 206 10,000  Level Salt Lake Center
Mon 09:09:04 AM 41.8889 -112.3650 349° North 180 207 10,000  Level Salt Lake Center
Mon 09:10:05 AM 41.9375 -112.3806 347° North 181 208 10,000  Level Salt Lake Center
Mon 09:11:06 AM 41.9867 -112.3947 348° North 181 208 10,000  Level Salt Lake Center
Mon 09:12:06 AM 42.0356 -112.4058 350° North 180 207 10,000  Level Salt Lake Center
Mon 09:13:07 AM 42.0839 -112.4208 347° North 179 206 10,000  Level Salt Lake Center
Mon 09:14:08 AM 42.1331 -112.4319 350° North 178 205 10,000  Level Salt Lake Center
Mon 09:15:09 AM 42.1811 -112.4453 348° North 178 205 10,000  Level Salt Lake Center
Mon 09:16:10 AM 42.2292 -112.4572 350° North 177 204 10,000  Level Salt Lake Center
Mon 09:17:11 AM 42.2767 -112.4692 349° North 175 201 10,000  Level Salt Lake Center
Mon 09:18:12 AM 42.3242 -112.4819 349° North 175 201 10,000  Level Salt Lake Center
Mon 09:19:13 AM 42.3728 -112.4942 349° North 176 203 10,000  Level Salt Lake Center
Mon 09:20:14 AM 42.4200 -112.5083 348° North 176 203 10,000  Level Salt Lake Center
Mon 09:21:15 AM 42.4786 -112.5236 349° North 177 204 10,000  Level Salt Lake Center
Mon 09:22:16 AM 42.5275 -112.5361 349° North 178 205 10,000  Level Salt Lake Center
Mon 09:23:17 AM 42.5758 -112.5500 348° North 179 206 10,000  Level Salt Lake Center
Mon 09:24:18 AM 42.6239 -112.5611 350° North 177 204 10,000  Level Salt Lake Center

Login

Don't have an account? Register now (free) for customized features, flight alerts, and more!